Time;durP1;ratioP1;P1;durP2;ratioP2;P2;SDS_P1;SDS_P2;PMS_P1;PMS_P2;Temp;Humidity;BMP_temperature;BMP_pressure;BME280_temperature;BME280_humidity;BME280_pressure;Samples;Min_cycle;Max_cycle;Signal;HPM_P1;HPM_P2
2021/10/29 00:01:11;;;;;;;25.20;18.33;;;;;;;20.92;49.68;101030.11;1723721;82;21822;-69
2021/10/29 00:03:39;;;;;;;23.47;17.90;;;;;;;21.06;49.27;101021.38;1722818;82;21993;-66
2021/10/29 00:06:06;;;;;;;28.20;18.90;;;;;;;20.93;49.67;101023.77;1722680;83;21192;-67
2021/10/29 00:08:32;;;;;;;22.73;16.63;;;;;;;20.92;49.82;101023.48;1720257;83;21313;-66
2021/10/29 00:10:59;;;;;;;25.60;18.33;;;;;;;20.86;49.76;101021.23;1707543;81;21192;-66
2021/10/29 00:13:26;;;;;;;27.00;20.27;;;;;;;20.92;49.75;101016.86;1717271;83;21236;-67
2021/10/29 00:15:53;;;;;;;30.10;21.27;;;;;;;21.00;49.41;101016.50;1716765;83;21205;-71
2021/10/29 00:18:19;;;;;;;24.10;18.97;;;;;;;20.88;49.75;101020.50;1721714;83;21187;-67
2021/10/29 00:20:46;;;;;;;26.03;18.13;;;;;;;20.77;49.90;101014.69;1713577;83;21287;-67
2021/10/29 00:23:13;;;;;;;29.83;20.63;;;;;;;20.98;49.38;101019.09;1722274;83;21172;-67
2021/10/29 00:25:39;;;;;;;27.43;20.07;;;;;;;20.79;49.83;101024.52;1721164;83;21311;-68
2021/10/29 00:28:06;;;;;;;27.20;20.73;;;;;;;20.79;49.82;101021.88;1722025;83;21240;-70
2021/10/29 00:30:33;;;;;;;28.00;19.07;;;;;;;20.87;49.58;101027.34;1722118;83;22641;-67
2021/10/29 00:33:00;;;;;;;24.13;17.80;;;;;;;20.95;49.32;101031.47;1722492;83;21181;-66
2021/10/29 00:35:26;;;;;;;29.77;18.73;;;;;;;21.05;48.96;101029.84;1705399;83;21839;-67
2021/10/29 00:37:53;;;;;;;25.60;19.23;;;;;;;21.31;48.45;101034.35;1721130;83;21180;-66
2021/10/29 00:40:19;;;;;;;24.23;18.37;;;;;;;21.45;47.78;101035.73;1721502;83;21250;-66
2021/10/29 00:42:46;;;;;;;27.73;20.37;;;;;;;21.32;48.13;101040.73;1712409;83;22465;-67
2021/10/29 00:45:12;;;;;;;25.00;19.57;;;;;;;21.36;48.01;101040.58;1722553;83;21303;-67
2021/10/29 00:47:39;;;;;;;23.57;17.53;;;;;;;21.49;47.60;101046.67;1722456;83;21255;-72
2021/10/29 00:50:07;;;;;;;24.13;17.50;;;;;;;21.53;47.43;101043.83;1721832;83;21827;-68
2021/10/29 00:52:34;;;;;;;25.80;18.03;;;;;;;21.68;46.95;101046.77;1722576;83;22783;-67
2021/10/29 00:55:01;;;;;;;25.07;18.37;;;;;;;21.46;46.95;101050.59;1722354;83;21239;-67
2021/10/29 00:57:28;;;;;;;27.60;18.80;;;;;;;21.05;48.43;101049.73;1722395;83;21247;-67
2021/10/29 00:59:55;;;;;;;26.23;16.53;;;;;;;20.87;49.02;101048.53;1722322;83;21280;-70
2021/10/29 01:02:22;;;;;;;23.83;17.87;;;;;;;21.18;48.49;101054.52;1721819;83;21060;-67
2021/10/29 01:04:48;;;;;;;25.73;17.47;;;;;;;20.94;48.43;101053.20;1723412;82;21736;-67
2021/10/29 01:07:15;;;;;;;24.63;16.80;;;;;;;21.00;48.81;101048.31;1723797;83;21054;-66
2021/10/29 01:09:42;;;;;;;25.27;18.73;;;;;;;21.08;48.61;101051.12;1723780;83;21322;-65
2021/10/29 01:12:09;;;;;;;25.17;18.77;;;;;;;20.54;49.87;101060.53;1722351;83;21227;-66
2021/10/29 01:14:37;;;;;;;24.17;17.77;;;;;;;20.61;50.22;101066.53;1723873;83;21401;-66
2021/10/29 01:17:04;;;;;;;23.67;17.63;;;;;;;20.60;50.10;101068.87;1723949;83;21101;-65
2021/10/29 01:19:32;;;;;;;23.30;17.57;;;;;;;20.62;50.01;101068.66;1723862;83;21718;-67
2021/10/29 01:22:01;;;;;;;24.20;19.53;;;;;;;20.77;49.56;101066.88;1723785;83;21299;-70
2021/10/29 01:24:28;;;;;;;24.03;18.67;;;;;;;20.58;49.64;101068.31;1722833;82;21279;-66
2021/10/29 01:26:54;;;;;;;26.57;18.00;;;;;;;20.52;49.83;101071.06;1723767;83;21248;-66
2021/10/29 01:29:20;;;;;;;22.60;17.57;;;;;;;20.47;49.87;101067.75;1723745;82;21095;-69
2021/10/29 01:31:47;;;;;;;26.10;18.20;;;;;;;20.41;49.95;101068.65;1723705;83;21174;-67
2021/10/29 01:34:14;;;;;;;27.10;19.67;;;;;;;20.27;50.22;101076.02;1722731;83;21378;-66
2021/10/29 01:36:41;;;;;;;26.63;18.80;;;;;;;20.28;50.54;101072.84;1723775;83;21327;-65
2021/10/29 01:39:08;;;;;;;26.63;18.43;;;;;;;19.98;51.63;101074.20;1723767;83;21200;-65
2021/10/29 01:41:34;;;;;;;23.20;17.00;;;;;;;19.88;52.12;101076.85;1723772;82;21650;-65
2021/10/29 01:44:02;;;;;;;28.27;19.37;;;;;;;19.93;52.80;101077.52;1723851;83;21261;-70
2021/10/29 01:46:29;;;;;;;26.57;20.73;;;;;;;19.97;52.72;101076.56;1723145;83;21177;-66
2021/10/29 01:48:56;;;;;;;31.60;21.70;;;;;;;20.18;52.37;101086.09;1723763;83;21297;-66
2021/10/29 01:51:23;;;;;;;27.53;19.37;;;;;;;20.02;53.06;101078.81;1723787;83;21141;-65
2021/10/29 01:53:49;;;;;;;28.43;19.63;;;;;;;20.31;51.96;101080.34;1723776;83;21225;-66
2021/10/29 01:56:16;;;;;;;25.67;19.13;;;;;;;19.76;52.60;101091.08;1723417;83;21137;-70
2021/10/29 01:58:42;;;;;;;29.73;20.53;;;;;;;19.31;58.69;101097.45;1723132;83;21163;-69
2021/10/29 02:01:09;;;;;;;25.27;18.50;;;;;;;18.95;61.46;101108.81;1723865;83;21307;-65
2021/10/29 02:03:35;;;;;;;22.50;17.30;;;;;;;19.23;60.72;101108.84;1723718;82;21689;-64
2021/10/29 02:06:02;;;;;;;23.63;16.23;;;;;;;19.38;59.66;101106.64;1722404;83;21156;-67
2021/10/29 02:08:30;;;;;;;21.33;15.93;;;;;;;19.12;62.63;101111.69;1721304;83;21117;-66
2021/10/29 02:10:56;;;;;;;19.43;15.63;;;;;;;19.33;61.87;101111.80;1722741;83;21396;-69
2021/10/29 02:13:25;;;;;;;19.77;15.77;;;;;;;19.67;60.27;101115.19;1722346;83;21250;-67
2021/10/29 02:15:51;;;;;;;20.47;15.73;;;;;;;19.66;60.03;101116.72;1722652;83;21869;-68
2021/10/29 02:18:18;;;;;;;19.80;14.63;;;;;;;19.65;60.74;101125.17;1722091;83;21303;-72
2021/10/29 02:20:45;;;;;;;20.77;15.60;;;;;;;19.62;60.77;101132.25;1722204;83;21277;-67
2021/10/29 02:23:13;;;;;;;22.63;16.67;;;;;;;19.03;65.04;101130.98;1722608;83;21204;-67
2021/10/29 02:25:44;;;;;;;20.27;15.60;;;;;;;19.55;62.45;101135.45;1722009;83;21191;-66
2021/10/29 02:28:10;;;;;;;19.77;16.27;;;;;;;19.60;62.13;101128.97;1722259;83;21308;-70
2021/10/29 02:30:37;;;;;;;20.47;14.90;;;;;;;19.78;60.42;101136.64;1695415;83;21170;-66
2021/10/29 02:33:04;;;;;;;20.23;15.13;;;;;;;19.60;60.96;101136.91;1723106;83;21265;-66
2021/10/29 02:35:30;;;;;;;20.27;16.20;;;;;;;19.73;60.66;101138.61;1722824;83;21085;-66
2021/10/29 02:37:57;;;;;;;22.47;17.47;;;;;;;19.95;59.47;101138.95;1723095;83;21239;-66
2021/10/29 02:40:24;;;;;;;20.70;16.60;;;;;;;20.16;57.93;101142.97;1722627;83;21172;-66
2021/10/29 02:42:51;;;;;;;20.67;15.70;;;;;;;19.77;59.07;101149.56;1721543;83;21125;-66
2021/10/29 02:45:18;;;;;;;23.57;18.17;;;;;;;19.82;59.89;101152.36;1722626;83;21190;-66
2021/10/29 02:47:47;;;;;;;23.80;18.93;;;;;;;20.16;57.86;101149.06;1722928;83;21838;-67
2021/10/29 02:50:17;;;;;;;22.73;19.10;;;;;;;19.87;58.46;101153.30;1722933;83;21344;-68
2021/10/29 02:52:45;;;;;;;25.23;17.82;;;;;;;19.68;60.16;101154.34;1721744;83;21201;-67
2021/10/29 02:55:12;;;;;;;30.60;19.13;;;;;;;19.47;62.11;101155.55;1722928;83;21010;-67
2021/10/29 02:57:39;;;;;;;23.50;18.53;;;;;;;19.46;62.12;101160.55;1722366;83;21362;-67
2021/10/29 03:00:15;;;;;;;23.47;17.07;;;;;;;19.56;62.03;101166.67;1723550;80;21234;31
2021/10/29 03:02:42;;;;;;;19.83;16.17;;;;;;;19.78;60.08;101173.16;1707856;81;21727;-68
2021/10/29 03:05:10;;;;;;;23.07;17.80;;;;;;;19.60;61.77;101177.91;1710675;82;21169;-68
2021/10/29 03:07:37;;;;;;;23.83;17.23;;;;;;;20.06;59.01;101180.55;1707794;82;21268;-68
2021/10/29 03:10:07;;;;;;;21.83;16.50;;;;;;;20.30;56.22;101173.50;1707092;81;21292;-69
2021/10/29 03:12:35;;;;;;;27.73;16.87;;;;;;;20.18;56.20;101180.08;1708125;82;21263;-67
2021/10/29 03:15:02;;;;;;;25.27;17.90;;;;;;;20.34;55.33;101174.69;1711256;82;22664;-67
2021/10/29 03:17:30;;;;;;;40.90;25.63;;;;;;;20.50;54.31;101176.44;1707219;81;21131;-68
2021/10/29 03:19:56;;;;;;;28.37;20.67;;;;;;;19.90;56.38;101181.16;1706853;82;21619;-69
2021/10/29 03:22:23;;;;;;;27.30;20.37;;;;;;;19.93;56.36;101186.83;1706787;82;21278;-71
2021/10/29 03:24:50;;;;;;;28.40;20.90;;;;;;;19.76;57.23;101189.76;1707143;82;21223;-68
2021/10/29 03:27:18;;;;;;;37.80;19.17;;;;;;;19.79;56.65;101195.13;1707367;81;21296;-66
2021/10/29 03:29:45;;;;;;;24.77;18.27;;;;;;;19.67;58.10;101192.42;1709397;82;21228;-72
2021/10/29 03:32:12;;;;;;;23.50;17.27;;;;;;;19.68;57.45;101189.54;1709735;82;21350;-66
2021/10/29 03:34:39;;;;;;;21.13;16.60;;;;;;;19.57;57.34;101197.37;1711091;82;21321;-70
2021/10/29 03:37:14;;;;;;;20.83;16.67;;;;;;;19.47;58.46;101191.77;1710662;82;21408;-66
2021/10/29 03:39:40;;;;;;;19.83;17.27;;;;;;;19.35;59.59;101192.48;1705323;81;21217;-65
2021/10/29 03:42:11;;;;;;;23.57;17.97;;;;;;;19.64;58.33;101193.66;1708787;81;21760;-68
2021/10/29 03:44:47;;;;;;;20.43;17.13;;;;;;;19.67;58.36;101197.70;1711511;82;21271;-72
2021/10/29 03:47:03;;;;;;;22.02;17.60;;;;;;;19.56;58.71;101201.85;1715070;81;21414;-64
2021/10/29 03:49:43;;;;;;;25.30;17.20;;;;;;;19.57;58.81;101210.07;1718298;81;21050;-69
2021/10/29 03:52:16;;;;;;;21.10;16.97;;;;;;;19.63;58.65;101209.76;1709115;81;21230;-69
2021/10/29 03:54:35;;;;;;;20.13;16.33;;;;;;;19.71;58.27;101210.78;1716237;81;21662;-65
2021/10/29 03:59:29;;;;;;;25.57;16.73;;;;;;;19.62;57.41;101216.89;1718030;81;21353;-65
2021/10/29 04:01:57;;;;;;;20.37;16.43;;;;;;;19.68;57.14;101223.93;1724237;81;21221;-75
2021/10/29 04:04:23;;;;;;;17.70;13.03;;;;;;;19.67;57.15;101221.52;1712371;82;21273;-65
2021/10/29 04:06:50;;;;;;;20.50;14.73;;;;;;;19.72;56.99;101216.36;1713922;81;21321;-67
2021/10/29 04:09:17;;;;;;;19.93;15.63;;;;;;;19.74;56.49;101224.09;1714761;81;21248;-69
2021/10/29 04:11:44;;;;;;;23.23;17.03;;;;;;;19.27;57.63;101221.84;1732489;81;21118;-65
2021/10/29 04:14:11;;;;;;;17.73;13.63;;;;;;;19.37;59.05;101226.66;1717326;81;21305;-72
2021/10/29 04:16:39;;;;;;;15.97;13.93;;;;;;;19.25;59.12;101231.04;1719199;81;22059;-67
2021/10/29 04:19:08;;;;;;;18.60;15.13;;;;;;;19.25;59.58;101235.81;1712475;81;21748;-67
2021/10/29 04:21:36;;;;;;;17.67;14.57;;;;;;;18.98;61.50;101233.89;1715339;81;21234;-68
2021/10/29 04:24:05;;;;;;;21.73;14.57;;;;;;;19.08;61.17;101238.16;1714602;81;21304;-69
2021/10/29 04:26:33;;;;;;;18.07;13.77;;;;;;;19.09;61.42;101248.22;1717821;81;22532;-66
2021/10/29 04:29:01;;;;;;;19.43;16.40;;;;;;;18.76;64.77;101247.15;1721555;81;22102;-67
2021/10/29 04:31:31;;;;;;;18.33;14.80;;;;;;;18.52;65.37;101253.42;1725447;81;21251;-66
2021/10/29 04:33:57;;;;;;;18.30;15.10;;;;;;;18.45;68.03;101257.44;1718216;81;21825;-72
2021/10/29 04:36:24;;;;;;;21.43;15.87;;;;;;;18.72;66.59;101259.97;1725042;81;21125;-65
2021/10/29 04:38:50;;;;;;;19.93;15.20;;;;;;;19.04;64.88;101267.37;1720091;81;21391;-66
2021/10/29 04:41:17;;;;;;;19.20;15.23;;;;;;;19.01;64.01;101264.34;1720237;81;21256;-71
2021/10/29 04:43:44;;;;;;;20.50;15.73;;;;;;;18.61;66.50;101269.34;1713194;81;21238;-66
2021/10/29 04:46:10;;;;;;;20.13;15.97;;;;;;;18.70;67.34;101266.77;1718017;81;21535;-73
2021/10/29 04:48:37;;;;;;;27.60;19.80;;;;;;;18.65;67.30;101267.08;1714470;81;21180;-68
2021/10/29 04:51:04;;;;;;;20.43;14.90;;;;;;;18.62;67.58;101270.95;1707665;82;21233;-65
2021/10/29 04:53:31;;;;;;;21.17;15.67;;;;;;;18.65;68.06;101271.05;1707368;81;21295;-66
2021/10/29 04:55:57;;;;;;;22.57;18.27;;;;;;;18.73;66.96;101277.94;1710184;82;21210;-66
2021/10/29 04:58:24;;;;;;;20.37;17.20;;;;;;;18.73;66.88;101281.39;1707299;82;21190;-65
2021/10/29 05:00:51;;;;;;;19.53;15.53;;;;;;;18.74;66.98;101276.91;1707079;82;21886;-66
2021/10/29 05:03:17;;;;;;;21.23;16.17;;;;;;;18.92;64.95;101275.17;1708248;82;21439;-68
2021/10/29 05:05:45;;;;;;;20.80;16.97;;;;;;;19.05;64.05;101286.67;1680111;84;21180;-67
2021/10/29 05:08:12;;;;;;;19.97;16.43;;;;;;;19.11;63.92;101286.63;1679958;84;21756;-69
2021/10/29 05:10:39;;;;;;;23.13;17.00;;;;;;;18.55;66.79;101291.29;1708625;82;21243;-67
2021/10/29 05:13:05;;;;;;;21.10;16.60;;;;;;;19.05;64.94;101298.56;1699374;82;22815;-68
2021/10/29 05:15:34;;;;;;;20.03;16.40;;;;;;;19.08;66.03;101312.16;1708773;82;21693;-68
2021/10/29 05:18:02;;;;;;;19.57;16.07;;;;;;;19.13;64.97;101311.03;1710398;82;21148;-66
2021/10/29 05:20:29;;;;;;;25.33;18.23;;;;;;;19.25;63.82;101311.66;1706782;82;21187;-67
2021/10/29 05:22:55;;;;;;;22.67;18.47;;;;;;;19.18;63.56;101316.47;1678602;84;21392;-66
2021/10/29 05:25:22;;;;;;;25.97;18.97;;;;;;;19.36;63.26;101324.19;1678157;84;21307;-68
2021/10/29 05:27:49;;;;;;;24.60;19.07;;;;;;;19.61;61.30;101319.69;1708889;82;21259;-74
2021/10/29 05:30:15;;;;;;;24.53;18.57;;;;;;;19.44;61.14;101326.05;1672687;84;21320;-70
2021/10/29 05:32:42;;;;;;;25.03;18.37;;;;;;;19.60;59.25;101333.14;1678574;84;21205;-64
2021/10/29 05:35:10;;;;;;;29.30;21.10;;;;;;;18.70;66.05;101337.23;1669037;84;21400;-64
2021/10/29 05:37:38;;;;;;;29.87;22.93;;;;;;;18.66;67.50;101347.41;1708589;82;21476;-64
2021/10/29 05:40:06;;;;;;;30.53;24.40;;;;;;;19.14;63.44;101348.32;1679060;84;21816;-68
2021/10/29 05:42:33;;;;;;;30.27;23.20;;;;;;;19.11;62.97;101347.94;1678954;84;21439;-65
2021/10/29 05:45:00;;;;;;;31.03;22.80;;;;;;;19.17;62.70;101351.87;1709078;82;21546;-64
2021/10/29 05:47:28;;;;;;;26.30;19.63;;;;;;;19.34;61.66;101337.61;1676802;84;21378;-66
2021/10/29 05:49:55;;;;;;;20.53;17.40;;;;;;;19.34;61.66;101337.61;1679373;84;21476;-67
2021/10/29 05:52:24;;;;;;;25.00;18.37;;;;;;;19.56;59.84;101345.99;1708277;82;21470;-75
2021/10/29 05:57:23;;;;;;;22.13;16.90;;;;;;;20.10;55.98;101352.97;1668008;84;21618;-67
2021/10/29 05:59:51;;;;;;;22.37;16.27;;;;;;;20.02;55.91;101352.73;1709414;82;21314;-64
2021/10/29 06:02:18;;;;;;;21.67;16.60;;;;;;;20.02;55.91;101352.73;1707928;81;21579;-67
2021/10/29 06:04:44;;;;;;;19.73;16.50;;;;;;;19.97;56.40;101345.17;1681567;83;21849;-66
2021/10/29 06:07:11;;;;;;;19.13;15.67;;;;;;;20.14;55.97;101352.30;1713977;82;21759;-67
2021/10/29 06:09:38;;;;;;;18.80;15.23;;;;;;;20.37;53.98;101350.84;1707843;82;21817;-66
2021/10/29 06:12:06;;;;;;;19.90;14.90;;;;;;;20.76;52.24;101347.44;1710776;82;21648;-66
2021/10/29 06:14:35;;;;;;;20.57;15.40;;;;;;;20.91;50.98;101351.85;1711867;81;21661;-71
2021/10/29 06:17:05;;;;;;;20.70;15.93;;;;;;;20.90;50.46;101361.62;1681325;83;21799;-66
2021/10/29 06:19:32;;;;;;;19.23;14.90;;;;;;;20.91;48.80;101365.11;1710880;82;21717;-67
2021/10/29 06:22:04;;;;;;;22.03;17.40;;;;;;;20.83;48.27;101362.22;1709170;82;21651;-67
2021/10/29 06:24:27;;;;;;;22.17;17.63;;;;;;;20.84;48.41;101369.68;1709484;82;21798;-71
2021/10/29 06:27:00;;;;;;;23.03;17.07;;;;;;;20.72;48.38;101371.44;1713301;82;21128;-67
2021/10/29 06:29:23;;;;;;;22.20;15.63;;;;;;;20.83;48.25;101369.36;1709420;82;21086;-67
2021/10/29 06:31:49;;;;;;;19.30;16.03;;;;;;;20.95;48.49;101370.25;1710644;82;21086;-65
2021/10/29 06:34:15;;;;;;;20.03;16.70;;;;;;;20.98;48.63;101367.12;1714716;82;21511;-69
2021/10/29 06:36:42;;;;;;;19.77;16.00;;;;;;;21.65;47.64;101366.98;1706281;82;21051;-67
2021/10/29 06:39:09;;;;;;;18.27;14.97;;;;;;;21.73;47.28;101365.83;1712068;82;21104;-67
2021/10/29 06:41:35;;;;;;;18.27;14.70;;;;;;;22.63;45.86;101370.72;1713863;82;21085;-67
2021/10/29 06:44:21;;;;;;;16.63;14.07;;;;;;;23.14;43.83;101374.88;1710455;82;21153;-65
2021/10/29 06:52:26;;;;;;;14.37;11.90;;;;;;;24.98;39.56;101371.61;1707942;82;20983;-67
2021/10/29 07:00:18;;;;;;;14.07;11.83;;;;;;;26.00;35.70;101379.14;1703244;82;22262;-65
2021/10/29 07:03:10;;;;;;;14.17;12.37;;;;;;;26.33;35.04;101374.47;1704854;82;21052;-64
2021/10/29 07:05:28;;;;;;;13.83;11.00;;;;;;;26.30;34.42;101377.69;1701658;82;20986;-71
2021/10/29 07:40:42;;;;;;;11.57;9.67;;;;;;;23.42;36.86;101414.76;1715810;82;21645;-69
2021/10/29 07:43:08;;;;;;;9.23;6.50;;;;;;;22.99;37.79;101422.74;1705548;82;21102;-70
2021/10/29 07:45:34;;;;;;;10.17;8.00;;;;;;;23.06;38.04;101416.77;1705827;82;21568;-70
2021/10/29 07:48:01;;;;;;;9.90;8.10;;;;;;;22.94;38.29;101423.19;1708093;82;21561;-70
2021/10/29 07:50:28;;;;;;;9.57;7.70;;;;;;;22.87;38.57;101423.28;1706706;82;21118;-70
2021/10/29 07:52:57;;;;;;;10.23;7.30;;;;;;;23.10;38.50;101417.09;1706972;82;21074;-69
2021/10/29 07:55:25;;;;;;;10.80;7.03;;;;;;;22.98;38.64;101426.45;1706628;82;20996;-68
2021/10/29 07:57:51;;;;;;;10.00;7.33;;;;;;;23.05;38.55;101421.00;1706991;82;21134;-69
2021/10/29 08:00:19;;;;;;;9.07;6.70;;;;;;;23.11;38.52;101429.87;1706469;82;21485;-69
2021/10/29 08:02:47;;;;;;;7.00;5.60;;;;;;;23.09;38.53;101427.98;1706031;82;21154;-68
2021/10/29 08:05:14;;;;;;;10.70;6.53;;;;;;;23.03;38.59;101431.89;1706579;82;20923;-69
2021/10/29 08:07:41;;;;;;;12.03;6.67;;;;;;;23.15;38.47;101437.69;1707152;82;21088;-68
2021/10/29 08:10:11;;;;;;;9.07;6.73;;;;;;;23.27;38.18;101445.09;1706369;82;20965;-70
2021/10/29 08:12:39;;;;;;;9.80;7.30;;;;;;;23.08;38.35;101445.00;1711786;82;21159;-69
2021/10/29 08:15:07;;;;;;;8.33;6.57;;;;;;;22.75;38.75;101451.76;1714730;82;21144;-69
2021/10/29 08:17:34;;;;;;;9.87;6.40;;;;;;;22.69;38.95;101458.00;1709957;82;21012;-68
2021/10/29 08:20:03;;;;;;;8.07;5.70;;;;;;;22.65;39.07;101458.19;1716210;82;21604;-70
2021/10/29 08:22:30;;;;;;;9.17;5.83;;;;;;;22.59;39.23;101453.30;1709058;82;20974;-69
2021/10/29 08:24:57;;;;;;;8.40;5.03;;;;;;;22.70;39.03;101457.78;1713666;82;21110;-69
2021/10/29 08:27:24;;;;;;;9.33;6.40;;;;;;;22.56;39.19;101465.19;1704690;82;21330;-70
2021/10/29 08:29:51;;;;;;;7.93;6.07;;;;;;;22.48;39.36;101467.41;1706747;82;21096;-69
2021/10/29 08:32:17;;;;;;;7.93;6.17;;;;;;;22.51;39.35;101463.77;1706021;82;21475;-69
2021/10/29 08:34:44;;;;;;;10.80;7.40;;;;;;;22.62;39.38;101463.98;1705736;82;21661;-68
2021/10/29 08:37:11;;;;;;;10.53;7.23;;;;;;;22.44;39.78;101457.76;1709748;82;21516;-69
2021/10/29 08:39:38;;;;;;;10.47;7.53;;;;;;;22.41;40.08;101461.39;1712698;82;21131;-68
2021/10/29 08:42:06;;;;;;;11.13;7.83;;;;;;;22.52;40.09;101469.36;1707461;82;20935;-71
2021/10/29 08:44:33;;;;;;;10.53;7.47;;;;;;;22.57;39.96;101464.14;1707915;82;20988;-70
2021/10/29 08:47:01;;;;;;;10.50;7.00;;;;;;;22.48;40.20;101468.20;1712963;82;20946;-70
2021/10/29 08:49:33;;;;;;;8.47;6.63;;;;;;;22.00;40.82;101471.05;1713754;82;20974;-71
2021/10/29 08:52:02;;;;;;;10.77;7.53;;;;;;;21.96;40.75;101478.66;1678996;82;21948;-71
2021/10/29 08:54:29;;;;;;;9.90;7.20;;;;;;;22.25;40.86;101469.55;1704045;82;21014;-69
2021/10/29 08:56:56;;;;;;;8.30;6.47;;;;;;;22.28;41.18;101469.09;1706668;82;21026;-69
2021/10/29 08:59:32;;;;;;;7.87;5.40;;;;;;;22.81;40.69;101469.44;1709712;81;21093;-70
2021/10/29 09:02:11;;;;;;;8.27;6.27;;;;;;;23.35;39.25;101465.18;1704081;82;21077;-71
2021/10/29 09:07:30;;;;;;;8.60;6.37;;;;;;;24.16;37.63;101465.73;1709611;82;21009;-70
2021/10/29 09:32:28;;;;;;;7.53;5.60;;;;;;;24.68;35.29;101461.41;1710329;82;21175;-71
2021/10/29 09:35:02;;;;;;;8.40;5.80;;;;;;;25.02;34.41;101462.61;1719669;82;20940;-72
2021/10/29 09:37:35;;;;;;;8.70;6.60;;;;;;;25.41;33.24;101463.30;1709626;82;21104;-68
2021/10/29 09:40:09;;;;;;;6.97;4.90;;;;;;;24.62;33.94;101462.39;1705893;82;21003;-68
2021/10/29 09:42:37;;;;;;;7.03;5.03;;;;;;;24.29;34.45;101462.73;1710376;82;21005;-67
2021/10/29 09:45:13;;;;;;;19.00;13.30;;;;;;;24.56;34.48;101456.73;1706334;82;21139;-71
2021/10/29 09:47:40;;;;;;;44.53;35.57;;;;;;;24.87;34.44;101456.05;1707180;82;21093;-71
2021/10/29 09:50:24;;;;;;;265.30;210.83;;;;;;;24.89;34.32;101463.28;1707039;82;21022;-68
2021/10/29 09:57:35;;;;;;;14.90;11.77;;;;;;;23.75;35.42;101466.42;1706597;82;22365;-66
2021/10/29 10:00:08;;;;;;;7.13;5.13;;;;;;;23.71;35.65;101459.97;1705980;82;21069;-67
2021/10/29 10:02:42;;;;;;;6.73;4.93;;;;;;;23.69;35.60;101457.55;1707052;82;20987;-73
2021/10/29 10:05:09;;;;;;;6.87;4.90;;;;;;;23.69;35.72;101466.88;1708018;82;21504;-67
2021/10/29 10:07:41;;;;;;;9.90;5.27;;;;;;;23.71;35.79;101464.77;1708248;82;21192;-69
2021/10/29 10:10:11;;;;;;;6.60;4.70;;;;;;;23.76;36.08;101466.73;1718408;82;21017;-71
2021/10/29 10:12:44;;;;;;;7.53;5.33;;;;;;;24.11;35.54;101473.66;1706560;82;21094;-68
2021/10/29 10:15:11;;;;;;;8.07;5.10;;;;;;;24.22;35.77;101462.91;1712295;82;21315;-68
2021/10/29 10:17:39;;;;;;;6.63;5.07;;;;;;;24.35;35.19;101463.08;1710674;82;21516;-70
2021/10/29 10:20:07;;;;;;;6.70;5.33;;;;;;;24.78;34.29;101465.55;1711564;82;21095;-70
2021/10/29 10:22:38;;;;;;;7.80;5.43;;;;;;;24.39;34.43;101466.89;1713341;82;21008;-70
2021/10/29 10:25:13;;;;;;;13.83;7.62;;;;;;;24.03;34.92;101466.36;1711853;82;21072;-70
2021/10/29 10:31:08;;;;;;;6.90;4.73;;;;;;;23.64;35.45;101472.59;1710077;82;21084;-68
2021/10/29 10:42:19;;;;;;;8.43;5.30;;;;;;;24.18;34.70;101474.30;1707594;82;21528;-67
2021/10/29 10:47:04;;;;;;;8.93;5.77;;;;;;;24.13;34.30;101470.21;1719465;82;20988;-64
2021/10/29 10:49:46;;;;;;;9.60;6.03;;;;;;;24.00;34.33;101474.02;1713312;82;21979;-67
2021/10/29 10:52:22;;;;;;;10.57;6.60;;;;;;;23.46;34.96;101473.11;1708464;82;20903;-73
2021/10/29 10:54:51;;;;;;;9.47;7.10;;;;;;;23.53;34.81;101471.11;1705884;82;21115;-67
2021/10/29 11:00:17;;;;;;;9.03;6.67;;;;;;;23.73;35.26;101471.19;1702093;82;21524;-68
2021/10/29 11:11:18;;;;;;;10.87;5.23;;;;;;;24.50;34.03;101473.98;1709571;82;21061;-66
2021/10/29 11:13:57;;;;;;;8.73;5.17;;;;;;;24.61;33.71;101470.92;1705887;82;21072;-65
2021/10/29 11:16:39;;;;;;;9.27;5.57;;;;;;;24.92;33.33;101466.77;1711341;82;22004;-71
2021/10/29 11:19:17;;;;;;;6.40;4.53;;;;;;;24.73;33.26;101472.94;1707185;82;20948;-63
2021/10/29 11:21:48;;;;;;;8.23;4.27;;;;;;;24.62;33.34;101470.39;1730605;81;20993;-64
2021/10/29 11:24:16;;;;;;;6.93;4.33;;;;;;;24.54;33.40;101470.29;1709437;82;21038;-64
2021/10/29 11:26:47;;;;;;;9.63;5.10;;;;;;;24.70;33.25;101469.95;1706652;82;21643;-65
2021/10/29 11:29:15;;;;;;;;;;;;;;;24.84;32.97;101479.73;1713655;82;21187;-77
2021/10/29 11:31:49;;;;;;;7.60;5.07;;;;;;;25.14;32.00;101474.78;1717957;82;20268;-64
2021/10/29 11:34:16;;;;;;;7.97;5.03;;;;;;;24.97;32.13;101472.70;1706929;82;21021;-65
2021/10/29 11:36:50;;;;;;;6.73;4.33;;;;;;;24.65;32.43;101475.23;1706941;82;21020;-65
2021/10/29 11:39:21;;;;;;;6.27;4.17;;;;;;;24.65;32.40;101464.57;1706940;82;21534;-67
2021/10/29 11:41:50;;;;;;;6.50;3.50;;;;;;;24.63;32.45;101468.02;1696216;82;21875;-73
2021/10/29 11:44:22;;;;;;;17.23;11.20;;;;;;;24.76;32.21;101471.64;1707004;82;21606;-65
2021/10/29 11:46:50;;;;;;;8.30;4.47;;;;;;;24.75;32.40;101477.51;1696247;82;21393;-67
2021/10/29 11:49:24;;;;;;;5.53;3.57;;;;;;;25.17;31.83;101473.48;1726166;81;21646;-65
2021/10/29 11:51:48;;;;;;;6.30;3.20;;;;;;;25.17;31.63;101479.62;1704172;82;21018;-74
2021/10/29 12:07:24;;;;;;;5.23;2.87;;;;;;;24.27;32.15;101489.61;1705231;82;21155;-66
2021/10/29 12:09:54;;;;;;;4.67;2.70;;;;;;;23.94;32.50;101490.95;1709092;82;21072;-66
2021/10/29 12:12:26;;;;;;;6.13;4.10;;;;;;;23.90;32.59;101495.95;1664468;84;21561;-68
2021/10/29 12:14:54;;;;;;;5.57;3.33;;;;;;;23.73;32.91;101491.16;1688856;83;21104;-66
2021/10/29 12:17:35;;;;;;;8.03;3.93;;;;;;;23.86;32.81;101497.49;1704788;82;21511;-66
2021/10/29 12:20:07;;;;;;;7.57;4.17;;;;;;;23.82;32.97;101496.36;1699891;82;21266;-67
2021/10/29 12:25:16;;;;;;;7.23;4.00;;;;;;;24.28;32.41;101503.73;1675032;83;21058;-69
2021/10/29 12:27:41;;;;;;;5.47;3.40;;;;;;;24.27;32.25;101511.46;1700859;82;21561;-68
2021/10/29 12:30:17;;;;;;;6.53;3.60;;;;;;;24.20;32.16;101510.28;1673915;84;21074;-66
2021/10/29 12:39:14;;;;;;;7.67;4.50;;;;;;;22.92;33.14;101526.30;1660997;85;21099;-68
2021/10/29 13:04:11;;;;;;;6.77;3.03;;;;;;;22.87;34.04;101536.28;1682675;82;21104;-67
2021/10/29 13:06:47;;;;;;;6.70;3.80;;;;;;;22.94;33.85;101543.64;1714944;81;21524;-69
2021/10/29 13:09:18;;;;;;;8.57;4.10;;;;;;;22.87;33.82;101541.59;1709295;82;21513;-67
2021/10/29 13:11:50;;;;;;;9.07;4.90;;;;;;;22.95;33.82;101541.79;1708880;81;21470;-71
2021/10/29 13:14:27;;;;;;;8.50;5.20;;;;;;;22.95;33.65;101541.27;1680289;83;22135;-67
2021/10/29 13:16:54;;;;;;;9.77;5.87;;;;;;;22.80;33.63;101544.38;1678571;83;20979;-66
2021/10/29 13:36:43;;;;;;;15.53;7.83;;;;;;;22.22;34.40;101553.14;1687485;83;20993;-70
2021/10/29 13:50:27;;;;;;;11.33;6.70;;;;;;;21.24;35.58;101562.70;1714847;81;21302;-69
2021/10/29 13:51:44;;;;;;;15.27;9.13;;;;;;;21.65;35.50;101563.34;1707868;82;21622;-69
2021/10/29 13:54:24;;;;;;;12.17;7.30;;;;;;;21.51;35.79;101561.89;1710199;82;22243;-66
2021/10/29 13:59:41;;;;;;;18.47;8.03;;;;;;;21.39;36.23;101567.14;1623524;82;21073;-68
2021/10/29 14:29:40;;;;;;;16.13;10.23;;;;;;;21.00;37.98;101575.01;1754783;80;22151;-70
2021/10/29 14:32:43;;;;;;;14.37;9.13;;;;;;;20.96;38.06;101575.16;1755013;80;21808;-69
2021/10/29 14:34:42;;;;;;;16.67;9.43;;;;;;;20.98;38.04;101583.16;1735893;80;22186;-68
2021/10/29 14:37:18;;;;;;;14.67;9.23;;;;;;;20.83;38.26;101576.88;1751302;81;21662;-70
2021/10/29 14:45:03;;;;;;;12.60;7.47;;;;;;;20.50;38.82;101583.02;1746050;81;22202;-69
2021/10/29 14:47:36;;;;;;;14.20;8.75;;;;;;;20.99;38.17;101586.66;1735280;81;22747;-70
2021/10/29 15:01:09;;;;;;;21.70;12.97;;;;;;;20.99;37.87;101597.25;1753406;80;21767;-68
2021/10/29 15:03:47;;;;;;;22.53;12.07;;;;;;;21.11;37.70;101593.64;1743325;81;21694;-67